Time;durP1;ratioP1;P1;durP2;ratioP2;P2;SDS_P1;SDS_P2;PMS_P1;PMS_P2;Temp;Humidity;BMP_temperature;BMP_pressure;BME280_temperature;BME280_humidity;BME280_pressure;Samples;Min_cycle;Max_cycle;Signal;HPM_P1;HPM_P2
2023/01/26 00:02:27;;;;;;;321.38;50.47;;;;;;;-1.69;100.00;102550.19;5249448;28;20369;-74
2023/01/26 00:04:58;;;;;;;284.38;49.72;;;;;;;-1.72;100.00;102552.91;5255708;28;20480;-74
2023/01/26 00:07:28;;;;;;;309.40;49.20;;;;;;;-1.77;100.00;102546.91;5246254;28;20039;-74
2023/01/26 00:09:58;;;;;;;311.80;52.92;;;;;;;-1.78;100.00;102542.56;5246225;28;20021;-74
2023/01/26 00:12:29;;;;;;;322.17;53.72;;;;;;;-1.72;100.00;102539.75;5246295;28;20100;-74
2023/01/26 00:14:59;;;;;;;308.95;52.40;;;;;;;-1.69;100.00;102540.53;5249153;28;20019;-73
2023/01/26 00:17:30;;;;;;;329.80;52.95;;;;;;;-1.69;100.00;102527.38;5258015;28;20461;-74
2023/01/26 00:20:00;;;;;;;323.48;50.30;;;;;;;-1.65;100.00;102529.00;5245971;28;20024;-73
2023/01/26 00:22:31;;;;;;;339.10;53.50;;;;;;;-1.67;100.00;102522.91;5246309;28;20567;-74
2023/01/26 00:25:01;;;;;;;317.67;52.78;;;;;;;-1.74;100.00;102520.53;5252087;28;20403;-74
2023/01/26 00:27:32;;;;;;;313.63;50.67;;;;;;;-1.76;100.00;102522.31;5256224;28;20021;-74
2023/01/26 00:30:03;;;;;;;306.27;49.95;;;;;;;-1.80;100.00;102515.47;5246693;28;20055;-74
2023/01/26 00:32:37;;;;;;;327.75;52.67;;;;;;;-1.82;100.00;102516.34;5245750;28;20094;-74
2023/01/26 00:35:08;;;;;;;310.58;50.78;;;;;;;-1.78;100.00;102509.22;5246807;28;20051;-74
2023/01/26 00:37:41;;;;;;;336.98;51.95;;;;;;;-1.76;100.00;102502.13;5245897;28;20035;-74
2023/01/26 00:40:12;;;;;;;300.98;50.10;;;;;;;-1.76;100.00;102503.91;5244410;28;20034;-74
2023/01/26 00:42:42;;;;;;;304.92;48.78;;;;;;;-1.70;100.00;102501.13;5246378;28;20078;-74
2023/01/26 00:45:13;;;;;;;334.85;52.80;;;;;;;-1.69;100.00;102502.84;5246236;28;20107;-74
2023/01/26 00:47:43;;;;;;;335.67;51.97;;;;;;;-1.67;100.00;102495.75;5249059;28;20028;-74
2023/01/26 00:50:14;;;;;;;318.35;52.85;;;;;;;-1.68;100.00;102483.50;5253711;28;20028;-74
2023/01/26 00:52:45;;;;;;;330.67;51.13;;;;;;;-1.65;100.00;102486.91;5245772;28;20369;-74
2023/01/26 00:55:15;;;;;;;314.73;51.47;;;;;;;-1.66;100.00;102479.88;5245980;28;20019;-74
2023/01/26 00:57:46;;;;;;;321.48;52.42;;;;;;;-1.61;100.00;102479.75;5245244;28;20377;-74
2023/01/26 01:00:17;;;;;;;346.60;51.75;;;;;;;-1.60;100.00;102473.59;5260330;28;20024;-74
2023/01/26 01:02:47;;;;;;;296.70;51.65;;;;;;;-1.62;100.00;102480.66;5265650;28;20081;-74
2023/01/26 01:05:17;;;;;;;300.77;50.53;;;;;;;-1.59;100.00;102467.41;5251851;28;20036;-74
2023/01/26 01:07:48;;;;;;;271.63;46.83;;;;;;;-1.64;100.00;102469.34;5244022;28;20104;-74
2023/01/26 01:10:19;;;;;;;289.40;48.20;;;;;;;-1.63;100.00;102457.91;5244760;28;20115;-74
2023/01/26 01:12:49;;;;;;;309.40;48.45;;;;;;;-1.61;100.00;102456.94;5245297;28;20056;-74
2023/01/26 01:15:20;;;;;;;315.27;48.45;;;;;;;-1.58;100.00;102463.88;5252249;28;20023;-74
2023/01/26 01:17:50;;;;;;;323.40;50.30;;;;;;;-1.58;100.00;102463.88;5254894;28;20023;-74
2023/01/26 01:20:21;;;;;;;354.55;55.45;;;;;;;-1.59;100.00;102467.41;5244782;28;20023;-74
2023/01/26 01:22:51;;;;;;;351.63;52.90;;;;;;;-1.55;100.00;102466.41;5245041;28;20027;-74
2023/01/26 01:25:22;;;;;;;311.92;48.10;;;;;;;-1.52;100.00;102462.81;5244880;28;20396;-74
2023/01/26 01:27:52;;;;;;;347.05;49.75;;;;;;;-1.51;100.00;102457.50;5244945;28;20030;-74
2023/01/26 01:30:23;;;;;;;288.50;47.53;;;;;;;-1.57;100.00;102455.06;5243122;28;20115;-74
2023/01/26 01:32:53;;;;;;;307.58;48.67;;;;;;;-1.57;100.00;102461.19;5243487;28;20025;-74
2023/01/26 01:35:24;;;;;;;315.52;51.83;;;;;;;-1.50;100.00;102461.00;5244911;28;20385;-74
2023/01/26 01:37:54;;;;;;;333.48;49.63;;;;;;;-1.49;100.00;102458.31;5244347;28;20025;-74
2023/01/26 01:40:24;;;;;;;341.25;51.88;;;;;;;-1.48;100.00;102454.78;5252014;28;20115;-74
2023/01/26 01:42:55;;;;;;;315.10;49.90;;;;;;;-1.51;100.00;102459.25;5249956;28;20557;-74
2023/01/26 01:45:25;;;;;;;347.70;53.38;;;;;;;-1.50;100.00;102458.38;5245937;28;20020;-74
2023/01/26 01:47:59;;;;;;;319.60;51.50;;;;;;;-1.49;100.00;102458.31;5245244;28;20028;-74
2023/01/26 01:50:36;;;;;;;352.45;49.95;;;;;;;-1.46;100.00;102459.97;5244277;28;20025;-74
2023/01/26 01:53:13;;;;;;;332.27;50.38;;;;;;;-1.43;100.00;102455.47;5245158;28;20025;-74
2023/01/26 01:55:44;;;;;;;314.83;50.63;;;;;;;-1.45;100.00;102448.56;5244887;28;20033;-74
2023/01/26 01:58:15;;;;;;;316.48;47.88;;;;;;;-1.47;100.00;102442.47;5254706;28;20085;-74
2023/01/26 02:00:45;;;;;;;310.00;48.53;;;;;;;-1.49;100.00;102437.25;5260054;28;20020;-74
2023/01/26 02:03:20;;;;;;;313.00;46.03;;;;;;;-1.48;100.00;102436.34;5249890;28;20400;-74
2023/01/26 02:06:09;;;;;;;;;;;;;;;-1.45;100.00;102440.66;5252065;28;20032;-74
2023/01/26 02:08:45;;;;;;;316.83;47.58;;;;;;;-1.47;100.00;102438.06;5251330;28;19977;-74
2023/01/26 02:11:30;;;;;;;304.15;46.53;;;;;;;-1.44;100.00;102429.22;5250314;28;20024;-74
2023/01/26 02:14:05;;;;;;;298.23;44.90;;;;;;;-1.42;100.00;102433.50;5249984;28;20544;-74
2023/01/26 02:16:38;;;;;;;296.05;44.75;;;;;;;-1.36;100.00;102438.56;5268517;28;20054;-74
2023/01/26 02:19:21;;;;;;;316.25;49.15;;;;;;;-1.34;100.00;102434.13;5251694;28;20466;-74
2023/01/26 02:21:57;;;;;;;263.50;45.42;;;;;;;-1.36;100.00;102443.81;5251217;28;20020;-74
2023/01/26 02:24:34;;;;;;;303.25;45.00;;;;;;;-1.34;100.00;102439.38;5251310;28;20024;-74
2023/01/26 02:27:05;;;;;;;298.75;44.30;;;;;;;-1.33;100.00;102437.63;5251017;28;20028;-74
2023/01/26 02:29:36;;;;;;;264.75;42.92;;;;;;;-1.32;100.00;102434.06;5251115;28;20027;-74
2023/01/26 02:32:07;;;;;;;299.13;46.65;;;;;;;-1.31;100.00;102431.41;5251395;28;20107;-74
2023/01/26 02:34:37;;;;;;;274.55;43.42;;;;;;;-1.28;100.00;102430.41;5250852;28;20392;-74
2023/01/26 02:37:13;;;;;;;293.75;44.40;;;;;;;-1.28;100.00;102427.78;5251071;28;20026;-74
2023/01/26 02:39:54;;;;;;;292.70;50.80;;;;;;;-1.26;100.00;102433.84;5250837;28;20477;-74
2023/01/26 02:42:43;;;;;;;287.50;48.97;;;;;;;-1.28;100.00;102430.41;5251421;28;20025;-74
2023/01/26 02:45:15;;;;;;;305.00;46.58;;;;;;;-1.29;100.00;102426.06;5251061;28;20493;-74
2023/01/26 02:47:47;;;;;;;279.52;46.33;;;;;;;-1.27;100.00;102423.38;5250774;28;20615;-74
2023/01/26 02:50:17;;;;;;;281.50;47.88;;;;;;;-1.26;100.00;102427.72;5251083;28;20078;-74
2023/01/26 02:52:48;;;;;;;274.70;44.50;;;;;;;-1.25;100.00;102427.69;5251084;28;20029;-74
2023/01/26 02:55:21;;;;;;;290.58;46.55;;;;;;;-1.23;100.00;102431.13;5251502;28;20036;-74
2023/01/26 02:57:55;;;;;;;292.63;47.72;;;;;;;-1.20;100.00;102428.41;5250912;28;20024;-74
2023/01/26 03:00:40;;;;;;;288.10;46.13;;;;;;;-1.21;100.00;102436.34;5266765;28;20031;-74
2023/01/26 03:03:14;;;;;;;283.35;49.88;;;;;;;-1.19;100.00;102431.91;5251368;28;20032;-74
2023/01/26 03:05:45;;;;;;;305.15;50.25;;;;;;;-1.18;100.00;102430.97;5251152;28;20036;-74
2023/01/26 03:08:16;;;;;;;293.67;47.60;;;;;;;-1.15;100.00;102431.75;5250425;28;20032;-74
2023/01/26 03:10:46;;;;;;;287.92;46.00;;;;;;;-1.14;100.00;102428.19;5249540;28;20396;-74
2023/01/26 03:13:17;;;;;;;284.65;45.90;;;;;;;-1.15;100.00;102431.75;5249101;28;20024;-75
2023/01/26 03:15:54;;;;;;;283.52;46.25;;;;;;;-1.14;100.00;102424.69;5258533;28;20049;-74
2023/01/26 03:29:43;;;;;;;289.17;45.83;;;;;;;-1.06;100.00;102418.22;5247103;28;20408;-74
2023/01/26 03:32:14;;;;;;;288.45;45.58;;;;;;;-1.04;100.00;102426.09;5247384;28;20028;-74
2023/01/26 03:34:44;;;;;;;292.80;49.40;;;;;;;-1.07;100.00;102423.56;5246140;28;20024;-74
2023/01/26 03:37:21;;;;;;;287.40;48.65;;;;;;;-1.08;100.00;102429.75;5245704;28;20049;-74
2023/01/26 03:56:45;;;;;;;301.02;47.83;;;;;;;-0.97;100.00;102403.88;5256868;28;20455;-74
2023/01/26 03:59:16;;;;;;;281.02;45.13;;;;;;;-0.98;100.00;102409.22;5253462;28;20162;-74
2023/01/26 04:10:13;;;;;;;303.83;47.55;;;;;;;-1.03;100.00;102406.75;5246379;28;20542;-74
2023/01/26 04:12:43;;;;;;;288.23;44.42;;;;;;;-1.04;100.00;102397.13;5246207;28;20036;-75
2023/01/26 04:23:45;;;;;;;297.67;46.63;;;;;;;-1.03;100.00;102401.47;5259686;28;20028;-74
2023/01/26 04:26:15;;;;;;;321.88;49.33;;;;;;;-1.00;100.00;102405.75;5246325;28;20028;-74
2023/01/26 04:28:46;;;;;;;304.50;47.92;;;;;;;-0.98;100.00;102402.16;5253641;28;20028;-74
2023/01/26 04:31:16;;;;;;;295.88;47.33;;;;;;;-0.93;100.00;102399.38;5251713;28;20032;-74
2023/01/26 04:33:47;;;;;;;306.30;48.22;;;;;;;-0.93;100.00;102402.88;5246229;28;20031;-74
2023/01/26 04:36:17;;;;;;;275.05;46.22;;;;;;;-0.91;100.00;102400.16;5259618;28;20098;-74
2023/01/26 04:38:48;;;;;;;279.13;45.75;;;;;;;-0.91;100.00;102398.38;5244469;28;20107;-74
2023/01/26 04:41:19;;;;;;;322.27;49.92;;;;;;;-0.89;100.00;102395.72;5245670;28;20603;-75
2023/01/26 04:43:49;;;;;;;314.13;49.53;;;;;;;-0.87;100.00;102399.16;5245821;28;20076;-74
2023/01/26 04:46:20;;;;;;;282.67;43.97;;;;;;;-0.87;100.00;102392.09;5244029;28;20032;-75
2023/01/26 04:48:51;;;;;;;298.77;47.35;;;;;;;-0.83;100.00;102390.22;5245714;28;20023;-75
2023/01/26 04:51:23;;;;;;;287.27;46.30;;;;;;;-0.82;100.00;102387.53;5245569;28;20036;-75
2023/01/26 04:53:53;;;;;;;313.42;49.20;;;;;;;-0.79;100.00;102389.19;5245606;28;20025;-75
2023/01/26 04:56:25;;;;;;;312.98;46.33;;;;;;;-0.81;100.00;102386.59;5265865;28;20039;-75
2023/01/26 04:58:58;;;;;;;288.70;44.67;;;;;;;-0.80;100.00;102385.72;5252682;28;20028;-75
2023/01/26 05:01:29;;;;;;;293.85;47.97;;;;;;;-0.78;100.00;102388.28;5256885;28;20028;-74
2023/01/26 05:04:01;;;;;;;270.00;43.05;;;;;;;-0.79;100.00;102395.34;5245237;28;20450;-75
2023/01/26 05:06:31;;;;;;;283.33;44.10;;;;;;;-0.82;100.00;102390.16;5245084;28;20150;-75
2023/01/26 05:09:02;;;;;;;271.42;44.53;;;;;;;-0.80;100.00;102380.44;5258956;28;20111;-75
2023/01/26 05:11:32;;;;;;;279.30;48.33;;;;;;;-0.76;100.00;102381.16;5257080;28;20028;-75
2023/01/26 05:14:03;;;;;;;327.17;46.85;;;;;;;-0.75;100.00;102382.91;5246562;28;20051;-74
2023/01/26 05:16:33;;;;;;;287.70;44.90;;;;;;;-0.72;100.00;102388.06;5262095;28;20028;-74
2023/01/26 05:19:04;;;;;;;271.05;43.60;;;;;;;-0.71;100.00;102383.63;5245274;28;20054;-74
2023/01/26 05:21:34;;;;;;;255.27;43.85;;;;;;;-0.72;100.00;102382.78;5244345;28;20133;-74
2023/01/26 05:24:07;;;;;;;254.73;45.15;;;;;;;-0.74;100.00;102382.00;5245251;28;20103;-74
2023/01/26 05:26:37;;;;;;;253.23;41.42;;;;;;;-0.75;100.00;102387.28;5243389;28;20454;-74
2023/01/26 05:29:08;;;;;;;249.73;41.00;;;;;;;-0.76;100.00;102385.56;5245442;28;20025;-75
2023/01/26 05:31:38;;;;;;;237.20;43.08;;;;;;;-0.77;100.00;102382.09;5257975;28;20028;-74
2023/01/26 05:34:09;;;;;;;278.58;43.67;;;;;;;-0.73;100.00;102385.47;5244735;28;20029;-74
2023/01/26 05:36:39;;;;;;;241.20;42.78;;;;;;;-0.70;100.00;102388.88;5243850;28;20046;-75
2023/01/26 05:39:10;;;;;;;258.67;42.22;;;;;;;-0.68;100.00;102388.81;5245034;28;20028;-75
2023/01/26 05:41:40;;;;;;;260.80;41.42;;;;;;;-0.69;100.00;102397.63;5244583;28;20024;-75
2023/01/26 05:44:11;;;;;;;247.05;42.75;;;;;;;-0.70;100.00;102402.06;5243446;28;20037;-75
2023/01/26 05:46:41;;;;;;;241.13;40.30;;;;;;;-0.70;100.00;102399.41;5244411;28;20021;-75
2023/01/26 05:49:11;;;;;;;229.85;40.22;;;;;;;-0.69;100.00;102400.28;5246953;28;20016;-75
2023/01/26 05:51:42;;;;;;;216.73;41.58;;;;;;;-0.67;100.00;102395.78;5265628;28;20020;-74
2023/01/26 05:54:13;;;;;;;195.10;38.22;;;;;;;-0.67;100.00;102399.28;5248032;28;20031;-74
2023/01/26 05:56:43;;;;;;;223.95;37.80;;;;;;;-0.65;100.00;102400.09;5244220;28;20025;-75
2023/01/26 05:59:14;;;;;;;224.70;39.28;;;;;;;-0.65;100.00;102394.84;5259153;28;20465;-74
2023/01/26 06:01:44;;;;;;;190.50;37.90;;;;;;;-0.64;100.00;102400.97;5254150;28;20032;-75
2023/01/26 06:04:15;;;;;;;199.05;37.40;;;;;;;-0.63;100.00;102395.63;5258167;28;20482;-75
2023/01/26 06:06:45;;;;;;;189.57;34.65;;;;;;;-0.60;100.00;102407.84;5243057;28;20516;-75
2023/01/26 06:09:15;;;;;;;197.77;37.25;;;;;;;-0.58;100.00;102408.63;5258184;28;20024;-75
2023/01/26 06:11:46;;;;;;;203.95;33.15;;;;;;;-0.59;100.00;102405.16;5244896;28;20085;-75
2023/01/26 06:14:17;;;;;;;224.23;36.65;;;;;;;-0.59;100.00;102405.16;5256165;28;20024;-74
2023/01/26 06:16:47;;;;;;;191.30;35.17;;;;;;;-0.58;100.00;102406.00;5261049;28;20020;-74
2023/01/26 06:19:18;;;;;;;200.05;39.25;;;;;;;-0.57;100.00;102413.00;5244734;28;20031;-75
2023/01/26 06:21:48;;;;;;;219.40;35.33;;;;;;;-0.55;100.00;102411.19;5243735;28;20117;-74
2023/01/26 06:24:19;;;;;;;209.65;36.55;;;;;;;-0.54;100.00;102415.53;5243210;28;20031;-75
2023/01/26 06:26:49;;;;;;;185.82;33.92;;;;;;;-0.54;100.00;102418.16;5244146;28;20109;-75
2023/01/26 06:29:20;;;;;;;215.88;36.72;;;;;;;-0.55;100.00;102419.94;5244698;28;20469;-75
2023/01/26 06:31:50;;;;;;;195.85;34.22;;;;;;;-0.54;100.00;102418.16;5242600;28;20025;-74
2023/01/26 06:34:21;;;;;;;201.07;35.70;;;;;;;-0.54;100.00;102416.38;5242921;28;20032;-75
2023/01/26 06:36:51;;;;;;;191.50;34.08;;;;;;;-0.53;100.00;102419.88;5243741;28;20512;-75
2023/01/26 06:39:21;;;;;;;186.35;34.83;;;;;;;-0.52;100.00;102429.50;5244315;28;20032;-74
2023/01/26 06:41:52;;;;;;;188.88;34.35;;;;;;;-0.52;100.00;102430.34;5252224;28;20380;-75
2023/01/26 06:44:22;;;;;;;194.05;35.58;;;;;;;-0.52;100.00;102418.94;5249586;28;20207;-75
2023/01/26 06:46:53;;;;;;;182.18;33.95;;;;;;;-0.51;100.00;102428.56;5243578;28;20024;-75
2023/01/26 06:49:23;;;;;;;167.27;32.13;;;;;;;-0.50;100.00;102439.97;5249191;28;20076;-74
2023/01/26 06:51:58;;;;;;;172.50;31.60;;;;;;;-0.48;100.00;102438.16;5258084;28;20032;-75
2023/01/26 06:54:28;;;;;;;162.07;32.03;;;;;;;-0.48;100.00;102441.66;5247887;28;20020;-75
2023/01/26 06:56:58;;;;;;;181.27;34.28;;;;;;;-0.48;100.00;102438.16;5246407;28;20032;-74
2023/01/26 06:59:29;;;;;;;190.70;34.30;;;;;;;-0.47;100.00;102431.97;5265619;28;20024;-74
2023/01/26 07:01:59;;;;;;;175.77;33.95;;;;;;;-0.47;100.00;102438.09;5255081;28;20400;-75
2023/01/26 07:04:30;;;;;;;198.38;33.72;;;;;;;-0.47;100.00;102438.09;5260857;28;20032;-74
2023/01/26 07:07:00;;;;;;;191.90;34.38;;;;;;;-0.48;100.00;102444.28;5247268;28;20070;-75
2023/01/26 07:09:31;;;;;;;177.07;33.13;;;;;;;-0.47;100.00;102439.88;5247702;28;20142;-75
2023/01/26 07:12:01;;;;;;;195.45;36.08;;;;;;;-0.47;100.00;102446.00;5247156;28;20115;-75
2023/01/26 07:14:32;;;;;;;175.73;32.28;;;;;;;-0.46;100.00;102441.59;5246913;28;20042;-74
2023/01/26 07:17:02;;;;;;;184.57;35.92;;;;;;;-0.46;100.00;102438.94;5263586;28;20048;-75
2023/01/26 07:19:33;;;;;;;197.32;33.72;;;;;;;-0.45;100.00;102440.66;5247518;28;20032;-75
2023/01/26 07:22:04;;;;;;;195.27;33.88;;;;;;;-0.45;100.00;102440.66;5246082;28;20049;-75
2023/01/26 07:24:34;;;;;;;191.00;35.90;;;;;;;-0.45;100.00;102438.03;5245947;28;20024;-75
2023/01/26 07:27:04;;;;;;;170.90;34.30;;;;;;;-0.43;100.00;102444.13;5247207;28;20491;-75
2023/01/26 07:29:35;;;;;;;201.88;34.50;;;;;;;-0.43;100.00;102444.97;5246972;28;20059;-75
2023/01/26 07:32:05;;;;;;;193.73;33.85;;;;;;;-0.43;100.00;102444.97;5247160;28;20020;-75
2023/01/26 07:34:36;;;;;;;175.30;33.45;;;;;;;-0.41;100.00;102450.19;5246076;28;20107;-74
2023/01/26 07:37:09;;;;;;;176.73;32.50;;;;;;;-0.39;100.00;102453.66;5245381;28;20024;-75
2023/01/26 07:39:40;;;;;;;161.32;33.20;;;;;;;-0.39;100.00;102446.59;5250652;28;20040;-74
2023/01/26 07:42:12;;;;;;;168.05;31.83;;;;;;;-0.38;100.00;102452.72;5245802;28;20024;-75
2023/01/26 07:44:42;;;;;;;200.90;31.70;;;;;;;-0.38;100.00;102452.72;5245623;28;20149;-75
2023/01/26 07:47:16;;;;;;;161.75;30.20;;;;;;;-0.37;100.00;102457.06;5244090;28;20123;-75
2023/01/26 07:49:46;;;;;;;184.57;31.85;;;;;;;-0.37;100.00;102457.94;5252549;28;20024;-75
2023/01/26 07:52:17;;;;;;;192.55;31.95;;;;;;;-0.34;100.00;102459.63;5252889;28;20082;-75
2023/01/26 07:54:50;;;;;;;163.82;30.10;;;;;;;-0.35;100.00;102461.41;5258423;28;20028;-75
2023/01/26 07:57:20;;;;;;;169.65;33.00;;;;;;;-0.33;100.00;102462.19;5245490;28;20111;-75
2023/01/26 07:59:51;;;;;;;195.57;33.50;;;;;;;-0.32;100.00;102469.19;5254029;28;20115;-74
2023/01/26 08:02:21;;;;;;;180.15;33.10;;;;;;;-0.30;100.00;102463.88;5252744;28;20546;-75
2023/01/26 08:04:52;;;;;;;164.90;30.08;;;;;;;-0.28;100.00;102462.03;5255751;28;20548;-74
2023/01/26 08:07:22;;;;;;;168.55;33.58;;;;;;;-0.26;100.00;102468.09;5243866;28;20025;-75
2023/01/26 08:09:53;;;;;;;153.80;30.77;;;;;;;-0.26;100.00;102468.94;5256223;28;20020;-75
2023/01/26 08:12:24;;;;;;;150.10;30.98;;;;;;;-0.24;100.00;102466.28;5265876;28;20480;-75
2023/01/26 08:14:54;;;;;;;149.18;30.42;;;;;;;-0.20;100.00;102475.78;5254953;28;20028;-75
2023/01/26 08:17:27;;;;;;;165.27;31.40;;;;;;;-0.18;100.00;102475.72;5245029;28;20074;-75
2023/01/26 08:19:58;;;;;;;184.23;30.85;;;;;;;-0.17;100.00;102478.28;5244958;28;20086;-75
2023/01/26 08:22:28;;;;;;;142.32;30.90;;;;;;;-0.14;100.00;102477.34;5243854;28;20119;-75
2023/01/26 08:24:59;;;;;;;152.55;34.08;;;;;;;-0.12;100.00;102486.91;5244770;28;20020;-75
2023/01/26 08:27:30;;;;;;;171.07;32.67;;;;;;;-0.13;100.00;102486.97;5243635;28;20039;-75
2023/01/26 08:30:00;;;;;;;169.20;33.10;;;;;;;-0.14;100.00;102488.75;5243314;28;20020;-75
2023/01/26 08:32:31;;;;;;;172.73;31.80;;;;;;;-0.12;100.00;102491.31;5245043;28;20082;-76
2023/01/26 08:35:02;;;;;;;197.98;32.67;;;;;;;-0.12;100.00;102500.09;5244903;28;20603;-75
2023/01/26 08:37:32;;;;;;;168.80;32.83;;;;;;;-0.10;100.00;102492.09;5244568;28;20123;-75
2023/01/26 08:40:03;;;;;;;185.65;33.03;;;;;;;-0.08;100.00;102498.22;5257460;28;20212;-75
2023/01/26 08:42:34;;;;;;;201.60;35.83;;;;;;;-0.07;100.00;102502.56;5243175;28;20082;-75
2023/01/26 08:45:04;;;;;;;165.88;33.58;;;;;;;-0.07;100.00;102494.66;5243615;28;20016;-75
2023/01/26 08:47:35;;;;;;;164.02;31.90;;;;;;;-0.05;100.00;102498.06;5253988;28;20400;-75
2023/01/26 08:50:06;;;;;;;164.60;30.92;;;;;;;-0.03;100.00;102498.91;5262027;28;20024;-75
2023/01/26 08:52:36;;;;;;;149.27;29.63;;;;;;;0.01;100.00;102513.69;5261545;28;20105;-75
2023/01/26 08:55:07;;;;;;;158.30;30.25;;;;;;;0.03;100.00;102505.72;5262875;28;20397;-75
2023/01/26 08:57:38;;;;;;;152.50;29.20;;;;;;;0.06;100.00;102511.75;5260425;28;20039;-75
2023/01/26 09:00:09;;;;;;;160.98;30.55;;;;;;;0.07;100.00;102508.19;5261689;28;20400;-75
2023/01/26 09:02:40;;;;;;;131.38;29.05;;;;;;;0.12;100.00;102506.22;5257959;28;20129;-75
2023/01/26 09:05:10;;;;;;;132.73;28.13;;;;;;;0.16;100.00;102507.84;5244337;28;20162;-75
2023/01/26 09:07:40;;;;;;;139.38;28.13;;;;;;;0.21;100.00;102511.16;5244257;28;20059;-75
2023/01/26 09:10:11;;;;;;;131.07;30.23;;;;;;;0.35;100.00;102509.75;5244311;28;20026;-75
2023/01/26 09:12:42;;;;;;;158.32;30.45;;;;;;;0.39;100.00;102512.22;5243203;28;20123;-75
2023/01/26 09:15:12;;;;;;;148.75;28.35;;;;;;;0.39;100.00;102514.84;5250381;28;20027;-75
2023/01/26 09:17:42;;;;;;;133.90;28.38;;;;;;;0.45;100.00;102511.09;5255985;28;20047;-75
2023/01/26 09:20:13;;;;;;;153.90;28.70;;;;;;;0.49;100.00;102515.34;5243929;28;20070;-74
2023/01/26 09:22:44;;;;;;;130.85;28.42;;;;;;;0.52;100.00;102515.25;5244786;28;20400;-75
2023/01/26 09:25:15;;;;;;;151.32;28.00;;;;;;;0.54;100.00;102523.09;5243910;28;20039;-75
2023/01/26 09:27:46;;;;;;;132.80;27.92;;;;;;;0.58;100.00;102514.13;5243030;28;20024;-74
2023/01/26 09:30:16;;;;;;;122.38;25.35;;;;;;;0.64;100.00;102520.03;5244439;28;20093;-74
2023/01/26 09:32:47;;;;;;;121.50;25.98;;;;;;;0.67;100.00;102519.91;5257859;28;20040;-75
2023/01/26 09:35:17;;;;;;;96.97;23.98;;;;;;;0.66;100.00;102510.28;5258123;28;20103;-75
2023/01/26 09:37:48;;;;;;;141.82;31.63;;;;;;;0.66;100.00;102514.69;5255853;28;20027;-75
2023/01/26 09:40:29;;;;;;;128.85;25.95;;;;;;;0.70;100.00;102509.22;5243193;28;20028;-75
2023/01/26 09:43:15;;;;;;;130.30;26.65;;;;;;;0.72;100.00;102510.03;5243743;28;20480;-75
2023/01/26 09:45:52;;;;;;;110.70;26.08;;;;;;;0.72;100.00;102506.53;5244697;28;20492;-75
2023/01/26 09:48:34;;;;;;;112.38;26.45;;;;;;;0.75;100.00;102512.53;5244177;28;20028;-74
2023/01/26 09:51:08;;;;;;;113.38;25.70;;;;;;;0.80;100.00;102512.31;5243988;28;20032;-74
2023/01/26 09:53:47;;;;;;;91.90;23.50;;;;;;;0.84;100.00;102524.50;5243869;28;20036;-73
2023/01/26 09:56:21;;;;;;;106.40;24.08;;;;;;;0.88;100.00;102525.25;5243797;28;20052;-74
2023/01/26 09:59:20;;;;;;;96.40;22.40;;;;;;;0.90;100.00;102516.31;5245061;28;20095;-74
2023/01/26 10:02:03;;;;;;;91.65;22.27;;;;;;;0.94;100.00;102520.56;5256197;28;20056;-74
2023/01/26 10:04:38;;;;;;;103.80;23.35;;;;;;;0.94;100.00;102520.56;5243319;28;20020;-74
2023/01/26 10:07:11;;;;;;;93.95;23.25;;;;;;;0.97;100.00;102522.22;5243224;28;20036;-74
2023/01/26 10:09:47;;;;;;;91.95;21.58;;;;;;;1.13;100.00;102531.22;5242179;28;20089;-74
2023/01/26 10:12:23;;;;;;;95.38;23.30;;;;;;;1.20;100.00;102529.19;5243472;28;20063;-74
2023/01/26 10:15:31;;;;;;;96.55;23.27;;;;;;;1.20;100.00;102519.47;5246644;28;20016;-74
2023/01/26 10:18:06;;;;;;;85.38;21.83;;;;;;;1.21;100.00;102523.00;5243235;28;20096;-74
2023/01/26 10:20:46;;;;;;;98.00;24.65;;;;;;;1.23;100.00;102521.13;5243411;28;20021;-74
2023/01/26 10:23:22;;;;;;;101.97;25.77;;;;;;;1.19;100.00;102520.38;5243663;28;20029;-74
2023/01/26 10:25:56;;;;;;;97.35;23.50;;;;;;;1.17;100.00;102519.59;5247790;28;20243;-73
2023/01/26 10:28:32;;;;;;;91.85;25.23;;;;;;;1.23;100.00;102523.78;5252552;28;20463;-74
2023/01/26 10:31:16;;;;;;;98.13;25.05;;;;;;;1.22;100.00;102520.28;5268632;28;20039;-74
2023/01/26 10:34:02;;;;;;;105.47;24.17;;;;;;;1.26;100.00;102526.31;5247679;28;20020;-74
2023/01/26 10:36:32;;;;;;;107.45;26.13;;;;;;;1.28;100.00;102524.44;5246952;28;20626;-74
2023/01/26 10:39:07;;;;;;;110.70;24.05;;;;;;;1.36;100.00;102518.84;5248127;28;20036;-74
2023/01/26 10:41:38;;;;;;;95.80;23.33;;;;;;;1.46;100.00;102520.16;5247385;28;20032;-74
2023/01/26 10:44:09;;;;;;;97.28;23.58;;;;;;;1.52;100.00;102522.53;5247681;28;20054;-73
2023/01/26 10:46:41;;;;;;;91.10;22.77;;;;;;;1.50;100.00;102519.94;5254994;28;20500;-74
2023/01/26 10:49:13;;;;;;;84.43;23.20;;;;;;;1.50;100.00;102519.06;5253667;28;20028;-74
2023/01/26 10:52:03;;;;;;;107.78;25.92;;;;;;;1.54;100.00;102526.81;5247381;28;20020;-75
2023/01/26 10:54:35;;;;;;;96.43;23.02;;;;;;;1.59;100.00;102523.09;5251751;28;20024;-73
2023/01/26 10:57:21;;;;;;;132.43;25.90;;;;;;;1.62;100.00;102515.03;5254213;28;20059;-74
2023/01/26 10:59:57;;;;;;;120.68;28.20;;;;;;;1.66;100.00;102520.13;5250122;28;20101;-75
2023/01/26 11:02:29;;;;;;;115.70;25.00;;;;;;;1.71;100.00;102523.44;5246317;28;20078;-74
2023/01/26 11:05:17;;;;;;;112.35;25.23;;;;;;;1.71;100.00;102520.78;5247369;28;20051;-73
2023/01/26 11:07:53;;;;;;;102.63;23.23;;;;;;;1.72;100.00;102517.22;5247900;28;20074;-74
2023/01/26 11:10:28;;;;;;;93.53;24.65;;;;;;;1.80;100.00;102519.50;5249021;28;20093;-74
2023/01/26 11:13:06;;;;;;;108.05;25.05;;;;;;;1.82;100.00;102512.38;5256937;28;20111;-74
2023/01/26 11:15:40;;;;;;;131.65;26.38;;;;;;;1.86;100.00;102516.59;5256430;28;20028;-74
2023/01/26 11:18:30;;;;;;;106.53;23.98;;;;;;;1.93;100.00;102519.81;5254102;28;20412;-73
2023/01/26 11:21:39;;;;;;;120.00;24.60;;;;;;;2.02;100.00;102516.75;5245965;28;20028;-74
2023/01/26 11:24:16;;;;;;;113.20;24.23;;;;;;;2.12;100.00;102515.41;5246761;28;20071;-74
2023/01/26 11:27:15;;;;;;;117.85;24.55;;;;;;;2.21;100.00;102525.56;5251546;28;20020;-74
2023/01/26 11:29:58;;;;;;;110.25;23.15;;;;;;;2.31;100.00;102521.56;5252277;28;20024;-74
2023/01/26 11:32:38;;;;;;;103.18;23.55;;;;;;;2.40;100.00;102514.09;5257176;28;20031;-74
2023/01/26 11:35:32;;;;;;;90.68;23.25;;;;;;;2.50;100.00;102521.53;5259779;28;20439;-74
2023/01/26 11:38:17;;;;;;;82.22;21.73;;;;;;;2.53;100.00;102524.03;5239523;28;20036;-75
2023/01/26 11:41:12;;;;;;;89.93;21.88;;;;;;;2.55;100.00;102521.31;5248082;28;20731;-75
2023/01/26 11:44:19;;;;;;;102.38;22.35;;;;;;;2.64;100.00;102520.00;5248444;28;20032;-74
2023/01/26 11:47:12;;;;;;;95.28;24.27;;;;;;;2.76;100.00;102514.09;5247887;28;20040;-74
2023/01/26 11:50:01;;;;;;;104.25;26.42;;;;;;;2.78;100.00;102514.91;5246579;28;20020;-74
2023/01/26 11:52:58;;;;;;;100.60;25.23;;;;;;;2.86;100.00;102518.03;5248513;28;20491;-74
2023/01/26 11:55:53;;;;;;;102.30;26.25;;;;;;;2.83;100.00;102513.75;5247353;28;20035;-74
2023/01/26 11:58:35;;;;;;;104.80;25.88;;;;;;;2.93;100.00;102505.34;5259699;28;20373;-74
2023/01/26 12:01:17;;;;;;;103.32;23.85;;;;;;;2.99;100.00;102502.38;5261793;28;20025;-74
2023/01/26 12:03:50;;;;;;;99.57;24.60;;;;;;;3.05;100.00;102504.72;5249282;28;20032;-75
2023/01/26 12:06:36;;;;;;;113.90;25.02;;;;;;;3.19;100.00;102490.75;5256717;28;20177;-74
2023/01/26 12:09:20;;;;;;;97.88;24.70;;;;;;;3.27;100.00;102485.94;5250245;28;20524;-75
2023/01/26 12:11:59;;;;;;;101.43;24.52;;;;;;;3.40;100.00;102486.13;5260623;28;20107;-74